sensor_id;sensor_type;location;lat;lon;timestamp;P1;durP1;ratioP1;P2;durP2;ratioP2
16346;SDS011;8283;48.504;13.734;2024-03-17T00:01:28;2.42;;;1.95;;
16346;SDS011;8283;48.504;13.734;2024-03-17T00:03:48;2.45;;;1.95;;
16346;SDS011;8283;48.504;13.734;2024-03-17T00:06:07;2.97;;;1.98;;
16346;SDS011;8283;48.504;13.734;2024-03-17T00:08:27;2.97;;;2.30;;
16346;SDS011;8283;48.504;13.734;2024-03-17T00:10:49;2.30;;;1.83;;
16346;SDS011;8283;48.504;13.734;2024-03-17T00:13:09;2.97;;;2.17;;
16346;SDS011;8283;48.504;13.734;2024-03-17T00:15:29;3.53;;;2.20;;
16346;SDS011;8283;48.504;13.734;2024-03-17T00:17:48;3.30;;;2.35;;
16346;SDS011;8283;48.504;13.734;2024-03-17T00:20:08;2.60;;;2.03;;
16346;SDS011;8283;48.504;13.734;2024-03-17T00:22:37;3.50;;;2.38;;
16346;SDS011;8283;48.504;13.734;2024-03-17T00:24:58;4.05;;;2.92;;
16346;SDS011;8283;48.504;13.734;2024-03-17T00:27:18;3.15;;;2.20;;
16346;SDS011;8283;48.504;13.734;2024-03-17T00:29:37;4.95;;;2.50;;
16346;SDS011;8283;48.504;13.734;2024-03-17T00:31:57;2.95;;;2.20;;
16346;SDS011;8283;48.504;13.734;2024-03-17T00:34:16;3.03;;;2.50;;
16346;SDS011;8283;48.504;13.734;2024-03-17T00:36:36;3.67;;;2.10;;
16346;SDS011;8283;48.504;13.734;2024-03-17T00:38:56;4.13;;;2.60;;
16346;SDS011;8283;48.504;13.734;2024-03-17T00:41:15;2.70;;;1.80;;
16346;SDS011;8283;48.504;13.734;2024-03-17T00:43:34;4.25;;;2.30;;
16346;SDS011;8283;48.504;13.734;2024-03-17T00:45:56;2.92;;;2.08;;
16346;SDS011;8283;48.504;13.734;2024-03-17T00:48:15;3.45;;;2.45;;
16346;SDS011;8283;48.504;13.734;2024-03-17T00:50:34;2.85;;;2.10;;
16346;SDS011;8283;48.504;13.734;2024-03-17T00:52:54;2.78;;;2.05;;
16346;SDS011;8283;48.504;13.734;2024-03-17T00:55:13;2.80;;;2.25;;
16346;SDS011;8283;48.504;13.734;2024-03-17T00:57:33;3.17;;;2.40;;
16346;SDS011;8283;48.504;13.734;2024-03-17T00:59:52;2.67;;;2.17;;
16346;SDS011;8283;48.504;13.734;2024-03-17T01:02:11;4.70;;;2.38;;
16346;SDS011;8283;48.504;13.734;2024-03-17T01:04:31;2.85;;;2.08;;
16346;SDS011;8283;48.504;13.734;2024-03-17T01:06:52;2.97;;;2.50;;
16346;SDS011;8283;48.504;13.734;2024-03-17T01:09:12;3.33;;;2.35;;
16346;SDS011;8283;48.504;13.734;2024-03-17T01:11:31;2.75;;;2.10;;
16346;SDS011;8283;48.504;13.734;2024-03-17T01:13:51;3.47;;;2.22;;
16346;SDS011;8283;48.504;13.734;2024-03-17T01:16:10;3.53;;;2.50;;
16346;SDS011;8283;48.504;13.734;2024-03-17T01:18:29;2.53;;;1.85;;
16346;SDS011;8283;48.504;13.734;2024-03-17T01:20:49;4.18;;;2.50;;
16346;SDS011;8283;48.504;13.734;2024-03-17T01:23:08;3.67;;;2.70;;
16346;SDS011;8283;48.504;13.734;2024-03-17T01:25:27;3.30;;;2.65;;
16346;SDS011;8283;48.504;13.734;2024-03-17T01:27:48;2.55;;;2.13;;
16346;SDS011;8283;48.504;13.734;2024-03-17T01:30:07;3.33;;;2.40;;
16346;SDS011;8283;48.504;13.734;2024-03-17T01:32:28;3.75;;;2.60;;
16346;SDS011;8283;48.504;13.734;2024-03-17T01:34:47;3.28;;;2.55;;
16346;SDS011;8283;48.504;13.734;2024-03-17T01:37:06;3.70;;;2.92;;
16346;SDS011;8283;48.504;13.734;2024-03-17T01:39:26;3.72;;;2.60;;
16346;SDS011;8283;48.504;13.734;2024-03-17T01:41:45;3.95;;;3.00;;
16346;SDS011;8283;48.504;13.734;2024-03-17T01:44:05;2.90;;;2.30;;
16346;SDS011;8283;48.504;13.734;2024-03-17T01:46:26;2.85;;;2.28;;
16346;SDS011;8283;48.504;13.734;2024-03-17T01:48:46;3.17;;;2.55;;
16346;SDS011;8283;48.504;13.734;2024-03-17T01:51:06;6.10;;;2.70;;
16346;SDS011;8283;48.504;13.734;2024-03-17T01:53:27;4.32;;;2.47;;
16346;SDS011;8283;48.504;13.734;2024-03-17T01:55:46;6.20;;;2.83;;
16346;SDS011;8283;48.504;13.734;2024-03-17T01:58:06;3.40;;;2.55;;
16346;SDS011;8283;48.504;13.734;2024-03-17T02:00:29;3.67;;;2.60;;
16346;SDS011;8283;48.504;13.734;2024-03-17T02:02:49;3.05;;;2.45;;
16346;SDS011;8283;48.504;13.734;2024-03-17T02:05:10;3.13;;;2.47;;
16346;SDS011;8283;48.504;13.734;2024-03-17T02:07:29;3.75;;;2.80;;
16346;SDS011;8283;48.504;13.734;2024-03-17T02:09:48;4.57;;;3.10;;
16346;SDS011;8283;48.504;13.734;2024-03-17T02:12:08;5.18;;;2.95;;
16346;SDS011;8283;48.504;13.734;2024-03-17T02:14:28;3.85;;;2.60;;
16346;SDS011;8283;48.504;13.734;2024-03-17T02:16:47;4.32;;;2.88;;
16346;SDS011;8283;48.504;13.734;2024-03-17T02:19:07;3.33;;;2.75;;
16346;SDS011;8283;48.504;13.734;2024-03-17T02:21:26;3.03;;;2.40;;
16346;SDS011;8283;48.504;13.734;2024-03-17T02:23:46;3.53;;;2.60;;
16346;SDS011;8283;48.504;13.734;2024-03-17T02:26:05;3.47;;;2.55;;
16346;SDS011;8283;48.504;13.734;2024-03-17T02:28:25;4.72;;;3.10;;
16346;SDS011;8283;48.504;13.734;2024-03-17T02:30:44;5.43;;;2.80;;
16346;SDS011;8283;48.504;13.734;2024-03-17T02:33:03;4.32;;;2.85;;
16346;SDS011;8283;48.504;13.734;2024-03-17T02:35:23;3.10;;;2.33;;
16346;SDS011;8283;48.504;13.734;2024-03-17T02:37:43;4.40;;;2.90;;
16346;SDS011;8283;48.504;13.734;2024-03-17T02:40:02;4.88;;;2.70;;
16346;SDS011;8283;48.504;13.734;2024-03-17T02:42:24;4.75;;;2.88;;
16346;SDS011;8283;48.504;13.734;2024-03-17T02:44:43;3.58;;;2.65;;
16346;SDS011;8283;48.504;13.734;2024-03-17T02:47:03;3.42;;;2.80;;
16346;SDS011;8283;48.504;13.734;2024-03-17T02:51:45;3.72;;;2.85;;
16346;SDS011;8283;48.504;13.734;2024-03-17T02:54:04;3.75;;;2.72;;
16346;SDS011;8283;48.504;13.734;2024-03-17T02:56:24;4.55;;;2.58;;
16346;SDS011;8283;48.504;13.734;2024-03-17T02:58:45;3.15;;;2.38;;
16346;SDS011;8283;48.504;13.734;2024-03-17T03:01:05;5.80;;;3.00;;
16346;SDS011;8283;48.504;13.734;2024-03-17T03:03:25;4.55;;;2.33;;
16346;SDS011;8283;48.504;13.734;2024-03-17T03:05:44;3.53;;;2.67;;
16346;SDS011;8283;48.504;13.734;2024-03-17T03:08:04;4.28;;;3.00;;
16346;SDS011;8283;48.504;13.734;2024-03-17T03:10:24;3.60;;;2.72;;
16346;SDS011;8283;48.504;13.734;2024-03-17T03:12:44;3.20;;;2.35;;
16346;SDS011;8283;48.504;13.734;2024-03-17T03:15:04;4.20;;;2.60;;
16346;SDS011;8283;48.504;13.734;2024-03-17T03:17:23;3.97;;;2.58;;
16346;SDS011;8283;48.504;13.734;2024-03-17T03:19:43;3.47;;;2.55;;
16346;SDS011;8283;48.504;13.734;2024-03-17T03:22:03;4.35;;;2.63;;
16346;SDS011;8283;48.504;13.734;2024-03-17T03:24:22;3.85;;;2.42;;
16346;SDS011;8283;48.504;13.734;2024-03-17T03:26:41;3.67;;;2.88;;
16346;SDS011;8283;48.504;13.734;2024-03-17T03:29:01;4.00;;;2.83;;
16346;SDS011;8283;48.504;13.734;2024-03-17T03:31:20;3.20;;;2.63;;
16346;SDS011;8283;48.504;13.734;2024-03-17T03:33:40;5.30;;;2.92;;
16346;SDS011;8283;48.504;13.734;2024-03-17T03:36:06;3.13;;;2.40;;
16346;SDS011;8283;48.504;13.734;2024-03-17T03:38:26;4.75;;;2.70;;
16346;SDS011;8283;48.504;13.734;2024-03-17T03:40:46;3.47;;;2.50;;
16346;SDS011;8283;48.504;13.734;2024-03-17T03:43:11;4.35;;;2.53;;
16346;SDS011;8283;48.504;13.734;2024-03-17T03:45:33;4.53;;;2.80;;
16346;SDS011;8283;48.504;13.734;2024-03-17T03:47:54;2.72;;;2.25;;
16346;SDS011;8283;48.504;13.734;2024-03-17T03:50:14;4.20;;;3.13;;
16346;SDS011;8283;48.504;13.734;2024-03-17T03:52:36;5.55;;;2.88;;
16346;SDS011;8283;48.504;13.734;2024-03-17T03:54:56;3.92;;;2.70;;
16346;SDS011;8283;48.504;13.734;2024-03-17T03:57:16;4.27;;;2.13;;
16346;SDS011;8283;48.504;13.734;2024-03-17T03:59:35;6.45;;;2.70;;
16346;SDS011;8283;48.504;13.734;2024-03-17T04:01:54;4.20;;;3.78;;
16346;SDS011;8283;48.504;13.734;2024-03-17T04:04:15;3.50;;;2.85;;
16346;SDS011;8283;48.504;13.734;2024-03-17T04:06:35;3.65;;;3.00;;
16346;SDS011;8283;48.504;13.734;2024-03-17T04:08:56;5.03;;;3.10;;
16346;SDS011;8283;48.504;13.734;2024-03-17T04:11:15;5.05;;;3.05;;
16346;SDS011;8283;48.504;13.734;2024-03-17T04:13:35;4.10;;;3.28;;
16346;SDS011;8283;48.504;13.734;2024-03-17T04:15:54;5.15;;;2.88;;
16346;SDS011;8283;48.504;13.734;2024-03-17T04:18:15;4.05;;;2.60;;
16346;SDS011;8283;48.504;13.734;2024-03-17T04:20:36;4.68;;;3.30;;
16346;SDS011;8283;48.504;13.734;2024-03-17T04:22:55;4.18;;;2.80;;
16346;SDS011;8283;48.504;13.734;2024-03-17T04:25:15;3.50;;;2.47;;
16346;SDS011;8283;48.504;13.734;2024-03-17T04:27:35;4.20;;;2.90;;
16346;SDS011;8283;48.504;13.734;2024-03-17T04:29:54;4.85;;;3.00;;
16346;SDS011;8283;48.504;13.734;2024-03-17T04:34:35;4.40;;;3.28;;
16346;SDS011;8283;48.504;13.734;2024-03-17T04:36:54;5.50;;;2.78;;
16346;SDS011;8283;48.504;13.734;2024-03-17T04:39:13;3.80;;;2.95;;
16346;SDS011;8283;48.504;13.734;2024-03-17T04:41:32;6.03;;;3.25;;
16346;SDS011;8283;48.504;13.734;2024-03-17T04:43:52;5.60;;;2.92;;
16346;SDS011;8283;48.504;13.734;2024-03-17T04:46:12;4.00;;;2.83;;
16346;SDS011;8283;48.504;13.734;2024-03-17T04:48:33;6.67;;;3.87;;
16346;SDS011;8283;48.504;13.734;2024-03-17T04:50:52;4.45;;;3.10;;
16346;SDS011;8283;48.504;13.734;2024-03-17T04:53:12;5.43;;;3.65;;
16346;SDS011;8283;48.504;13.734;2024-03-17T04:55:32;7.03;;;3.47;;
16346;SDS011;8283;48.504;13.734;2024-03-17T04:57:52;5.28;;;3.55;;
16346;SDS011;8283;48.504;13.734;2024-03-17T05:00:11;5.13;;;3.72;;
16346;SDS011;8283;48.504;13.734;2024-03-17T05:02:32;5.32;;;3.03;;
16346;SDS011;8283;48.504;13.734;2024-03-17T05:04:51;4.68;;;3.30;;
16346;SDS011;8283;48.504;13.734;2024-03-17T05:07:12;4.60;;;3.17;;
16346;SDS011;8283;48.504;13.734;2024-03-17T05:09:31;5.30;;;3.35;;
16346;SDS011;8283;48.504;13.734;2024-03-17T05:11:50;5.60;;;3.70;;
16346;SDS011;8283;48.504;13.734;2024-03-17T05:14:11;5.03;;;3.60;;
16346;SDS011;8283;48.504;13.734;2024-03-17T05:16:30;4.13;;;3.00;;
16346;SDS011;8283;48.504;13.734;2024-03-17T05:18:50;3.90;;;3.10;;
16346;SDS011;8283;48.504;13.734;2024-03-17T05:21:09;4.47;;;3.58;;
16346;SDS011;8283;48.504;13.734;2024-03-17T05:23:30;4.75;;;3.38;;
16346;SDS011;8283;48.504;13.734;2024-03-17T05:25:53;5.57;;;3.97;;
16346;SDS011;8283;48.504;13.734;2024-03-17T05:28:13;5.05;;;3.58;;
16346;SDS011;8283;48.504;13.734;2024-03-17T05:30:35;4.18;;;3.28;;
16346;SDS011;8283;48.504;13.734;2024-03-17T05:32:54;5.57;;;3.53;;
16346;SDS011;8283;48.504;13.734;2024-03-17T05:35:14;5.35;;;3.70;;
16346;SDS011;8283;48.504;13.734;2024-03-17T05:37:33;5.20;;;3.78;;
16346;SDS011;8283;48.504;13.734;2024-03-17T05:39:52;4.82;;;3.47;;
16346;SDS011;8283;48.504;13.734;2024-03-17T05:42:13;4.13;;;3.38;;
16346;SDS011;8283;48.504;13.734;2024-03-17T05:44:32;5.80;;;3.90;;
16346;SDS011;8283;48.504;13.734;2024-03-17T05:47:08;4.65;;;3.38;;
16346;SDS011;8283;48.504;13.734;2024-03-17T05:49:28;6.88;;;4.03;;
16346;SDS011;8283;48.504;13.734;2024-03-17T05:51:47;7.45;;;3.70;;
16346;SDS011;8283;48.504;13.734;2024-03-17T05:54:07;6.90;;;3.55;;
16346;SDS011;8283;48.504;13.734;2024-03-17T05:56:27;5.68;;;3.63;;
16346;SDS011;8283;48.504;13.734;2024-03-17T05:58:46;5.85;;;3.40;;
16346;SDS011;8283;48.504;13.734;2024-03-17T06:01:05;4.53;;;3.60;;
16346;SDS011;8283;48.504;13.734;2024-03-17T06:03:28;5.15;;;3.88;;
16346;SDS011;8283;48.504;13.734;2024-03-17T06:05:47;7.10;;;3.63;;
16346;SDS011;8283;48.504;13.734;2024-03-17T06:08:07;5.32;;;3.80;;
16346;SDS011;8283;48.504;13.734;2024-03-17T06:10:27;5.82;;;4.10;;
16346;SDS011;8283;48.504;13.734;2024-03-17T06:12:47;5.38;;;3.65;;
16346;SDS011;8283;48.504;13.734;2024-03-17T06:15:07;5.75;;;3.95;;
16346;SDS011;8283;48.504;13.734;2024-03-17T06:17:26;5.28;;;3.15;;
16346;SDS011;8283;48.504;13.734;2024-03-17T06:19:46;5.72;;;3.63;;
16346;SDS011;8283;48.504;13.734;2024-03-17T06:22:05;5.60;;;3.53;;
16346;SDS011;8283;48.504;13.734;2024-03-17T06:24:25;7.25;;;3.65;;
16346;SDS011;8283;48.504;13.734;2024-03-17T06:26:44;4.65;;;3.40;;
16346;SDS011;8283;48.504;13.734;2024-03-17T06:29:03;5.53;;;3.72;;
16346;SDS011;8283;48.504;13.734;2024-03-17T06:31:22;5.45;;;3.53;;
16346;SDS011;8283;48.504;13.734;2024-03-17T06:33:42;5.13;;;4.00;;
16346;SDS011;8283;48.504;13.734;2024-03-17T06:36:02;5.55;;;3.78;;
16346;SDS011;8283;48.504;13.734;2024-03-17T06:40:47;4.85;;;3.40;;
16346;SDS011;8283;48.504;13.734;2024-03-17T06:43:11;4.82;;;3.45;;
16346;SDS011;8283;48.504;13.734;2024-03-17T06:45:30;4.80;;;3.58;;
16346;SDS011;8283;48.504;13.734;2024-03-17T06:47:50;5.50;;;3.78;;
16346;SDS011;8283;48.504;13.734;2024-03-17T06:50:09;5.90;;;3.83;;
16346;SDS011;8283;48.504;13.734;2024-03-17T06:52:29;4.85;;;3.15;;
16346;SDS011;8283;48.504;13.734;2024-03-17T06:54:49;5.33;;;3.63;;
16346;SDS011;8283;48.504;13.734;2024-03-17T06:57:08;6.47;;;4.13;;
16346;SDS011;8283;48.504;13.734;2024-03-17T06:59:28;6.22;;;3.78;;
16346;SDS011;8283;48.504;13.734;2024-03-17T07:01:51;5.82;;;4.15;;
16346;SDS011;8283;48.504;13.734;2024-03-17T07:04:10;5.65;;;4.25;;
16346;SDS011;8283;48.504;13.734;2024-03-17T07:06:30;6.38;;;4.15;;
16346;SDS011;8283;48.504;13.734;2024-03-17T07:08:49;4.65;;;4.00;;
16346;SDS011;8283;48.504;13.734;2024-03-17T07:11:08;4.93;;;3.45;;
16346;SDS011;8283;48.504;13.734;2024-03-17T07:13:28;5.35;;;3.90;;
16346;SDS011;8283;48.504;13.734;2024-03-17T07:15:49;4.60;;;3.88;;
16346;SDS011;8283;48.504;13.734;2024-03-17T07:18:08;5.25;;;3.92;;
16346;SDS011;8283;48.504;13.734;2024-03-17T07:20:27;5.13;;;3.83;;
16346;SDS011;8283;48.504;13.734;2024-03-17T07:22:48;4.53;;;3.47;;
16346;SDS011;8283;48.504;13.734;2024-03-17T07:25:08;4.38;;;3.30;;
16346;SDS011;8283;48.504;13.734;2024-03-17T07:27:28;6.72;;;3.20;;
16346;SDS011;8283;48.504;13.734;2024-03-17T07:29:48;7.63;;;4.25;;
16346;SDS011;8283;48.504;13.734;2024-03-17T07:32:08;4.60;;;3.75;;
16346;SDS011;8283;48.504;13.734;2024-03-17T07:34:30;5.38;;;3.67;;
16346;SDS011;8283;48.504;13.734;2024-03-17T07:36:54;4.30;;;3.40;;
16346;SDS011;8283;48.504;13.734;2024-03-17T07:39:14;5.03;;;3.50;;
16346;SDS011;8283;48.504;13.734;2024-03-17T07:41:33;4.70;;;3.35;;
16346;SDS011;8283;48.504;13.734;2024-03-17T07:43:52;3.53;;;2.80;;
16346;SDS011;8283;48.504;13.734;2024-03-17T07:46:12;4.15;;;3.30;;
16346;SDS011;8283;48.504;13.734;2024-03-17T07:48:33;5.65;;;3.70;;
16346;SDS011;8283;48.504;13.734;2024-03-17T07:50:58;3.42;;;3.13;;
16346;SDS011;8283;48.504;13.734;2024-03-17T07:53:19;5.10;;;3.95;;
16346;SDS011;8283;48.504;13.734;2024-03-17T07:55:38;4.75;;;3.70;;
16346;SDS011;8283;48.504;13.734;2024-03-17T07:57:58;4.47;;;3.70;;
16346;SDS011;8283;48.504;13.734;2024-03-17T08:00:17;4.32;;;3.55;;
16346;SDS011;8283;48.504;13.734;2024-03-17T08:02:37;4.70;;;3.97;;
16346;SDS011;8283;48.504;13.734;2024-03-17T08:04:56;5.07;;;3.90;;
16346;SDS011;8283;48.504;13.734;2024-03-17T08:07:16;4.75;;;3.85;;
16346;SDS011;8283;48.504;13.734;2024-03-17T08:09:35;6.43;;;3.95;;
16346;SDS011;8283;48.504;13.734;2024-03-17T08:11:55;4.68;;;3.47;;
16346;SDS011;8283;48.504;13.734;2024-03-17T08:14:14;4.53;;;3.45;;
16346;SDS011;8283;48.504;13.734;2024-03-17T08:16:34;3.65;;;3.13;;
16346;SDS011;8283;48.504;13.734;2024-03-17T08:18:53;4.22;;;3.20;;
16346;SDS011;8283;48.504;13.734;2024-03-17T08:21:13;7.53;;;3.50;;
16346;SDS011;8283;48.504;13.734;2024-03-17T08:23:32;3.95;;;3.20;;
16346;SDS011;8283;48.504;13.734;2024-03-17T08:25:55;3.65;;;2.88;;
16346;SDS011;8283;48.504;13.734;2024-03-17T08:28:24;3.78;;;3.28;;
16346;SDS011;8283;48.504;13.734;2024-03-17T08:30:50;4.72;;;3.15;;
16346;SDS011;8283;48.504;13.734;2024-03-17T08:33:20;3.42;;;3.00;;
16346;SDS011;8283;48.504;13.734;2024-03-17T08:35:41;4.28;;;3.35;;
16346;SDS011;8283;48.504;13.734;2024-03-17T08:38:00;3.50;;;3.17;;
16346;SDS011;8283;48.504;13.734;2024-03-17T08:40:20;4.03;;;3.13;;
16346;SDS011;8283;48.504;13.734;2024-03-17T08:42:40;3.88;;;3.10;;
16346;SDS011;8283;48.504;13.734;2024-03-17T08:44:59;3.42;;;2.90;;
16346;SDS011;8283;48.504;13.734;2024-03-17T08:47:19;4.55;;;2.50;;
16346;SDS011;8283;48.504;13.734;2024-03-17T08:49:38;4.18;;;2.65;;
16346;SDS011;8283;48.504;13.734;2024-03-17T08:51:57;2.78;;;2.40;;
16346;SDS011;8283;48.504;13.734;2024-03-17T08:54:16;2.72;;;2.22;;
16346;SDS011;8283;48.504;13.734;2024-03-17T08:56:35;3.30;;;2.55;;
16346;SDS011;8283;48.504;13.734;2024-03-17T08:58:55;3.33;;;2.47;;
16346;SDS011;8283;48.504;13.734;2024-03-17T09:01:15;3.00;;;2.05;;
16346;SDS011;8283;48.504;13.734;2024-03-17T09:03:35;2.67;;;2.00;;
16346;SDS011;8283;48.504;13.734;2024-03-17T09:05:54;2.42;;;2.22;;
16346;SDS011;8283;48.504;13.734;2024-03-17T09:10:41;3.47;;;2.30;;
16346;SDS011;8283;48.504;13.734;2024-03-17T09:13:02;2.30;;;1.90;;
16346;SDS011;8283;48.504;13.734;2024-03-17T09:15:22;2.33;;;1.63;;
16346;SDS011;8283;48.504;13.734;2024-03-17T09:17:41;2.63;;;2.15;;
16346;SDS011;8283;48.504;13.734;2024-03-17T09:20:01;2.40;;;2.17;;
16346;SDS011;8283;48.504;13.734;2024-03-17T09:22:20;2.85;;;1.80;;
16346;SDS011;8283;48.504;13.734;2024-03-17T09:24:39;1.70;;;1.42;;
16346;SDS011;8283;48.504;13.734;2024-03-17T09:26:59;3.97;;;1.75;;
16346;SDS011;8283;48.504;13.734;2024-03-17T09:29:19;1.90;;;1.50;;
16346;SDS011;8283;48.504;13.734;2024-03-17T09:31:38;1.88;;;1.50;;
16346;SDS011;8283;48.504;13.734;2024-03-17T09:34:01;1.70;;;1.60;;
16346;SDS011;8283;48.504;13.734;2024-03-17T09:36:21;2.35;;;1.70;;
16346;SDS011;8283;48.504;13.734;2024-03-17T09:38:41;2.03;;;1.58;;
16346;SDS011;8283;48.504;13.734;2024-03-17T09:41:01;3.05;;;1.52;;
16346;SDS011;8283;48.504;13.734;2024-03-17T09:43:21;2.58;;;1.70;;
16346;SDS011;8283;48.504;13.734;2024-03-17T09:45:41;1.88;;;1.38;;
16346;SDS011;8283;48.504;13.734;2024-03-17T09:48:01;2.13;;;1.63;;
16346;SDS011;8283;48.504;13.734;2024-03-17T09:50:20;1.88;;;1.38;;
16346;SDS011;8283;48.504;13.734;2024-03-17T09:52:39;1.45;;;1.08;;
16346;SDS011;8283;48.504;13.734;2024-03-17T09:55:09;1.90;;;1.50;;
16346;SDS011;8283;48.504;13.734;2024-03-17T09:57:33;1.98;;;1.50;;
16346;SDS011;8283;48.504;13.734;2024-03-17T10:02:15;2.35;;;1.35;;
16346;SDS011;8283;48.504;13.734;2024-03-17T10:04:37;2.63;;;1.20;;
16346;SDS011;8283;48.504;13.734;2024-03-17T10:06:56;1.20;;;1.00;;
16346;SDS011;8283;48.504;13.734;2024-03-17T10:09:15;1.38;;;1.02;;
16346;SDS011;8283;48.504;13.734;2024-03-17T10:11:40;2.28;;;1.38;;
16346;SDS011;8283;48.504;13.734;2024-03-17T10:14:07;1.10;;;1.00;;
16346;SDS011;8283;48.504;13.734;2024-03-17T10:16:28;2.38;;;1.38;;
16346;SDS011;8283;48.504;13.734;2024-03-17T10:18:48;2.28;;;1.40;;
16346;SDS011;8283;48.504;13.734;2024-03-17T10:21:19;1.52;;;1.30;;
16346;SDS011;8283;48.504;13.734;2024-03-17T10:23:44;1.42;;;1.10;;
16346;SDS011;8283;48.504;13.734;2024-03-17T10:26:03;1.98;;;1.20;;
16346;SDS011;8283;48.504;13.734;2024-03-17T10:28:33;1.83;;;1.40;;
16346;SDS011;8283;48.504;13.734;2024-03-17T10:30:59;3.22;;;1.40;;
16346;SDS011;8283;48.504;13.734;2024-03-17T10:33:21;1.98;;;1.40;;
16346;SDS011;8283;48.504;13.734;2024-03-17T10:35:43;1.40;;;1.23;;
16346;SDS011;8283;48.504;13.734;2024-03-17T10:38:04;1.52;;;1.17;;
16346;SDS011;8283;48.504;13.734;2024-03-17T10:40:25;1.75;;;1.40;;
16346;SDS011;8283;48.504;13.734;2024-03-17T10:47:27;2.35;;;1.40;;
16346;SDS011;8283;48.504;13.734;2024-03-17T10:49:47;1.77;;;1.30;;
16346;SDS011;8283;48.504;13.734;2024-03-17T10:52:15;1.98;;;1.30;;
16346;SDS011;8283;48.504;13.734;2024-03-17T10:54:39;1.45;;;1.20;;
16346;SDS011;8283;48.504;13.734;2024-03-17T10:59:54;1.58;;;1.10;;
16346;SDS011;8283;48.504;13.734;2024-03-17T11:02:33;1.65;;;1.15;;
16346;SDS011;8283;48.504;13.734;2024-03-17T11:04:55;2.20;;;1.33;;
16346;SDS011;8283;48.504;13.734;2024-03-17T11:07:17;3.45;;;1.30;;
16346;SDS011;8283;48.504;13.734;2024-03-17T11:11:58;2.28;;;1.25;;
16346;SDS011;8283;48.504;13.734;2024-03-17T11:14:18;1.83;;;1.20;;
16346;SDS011;8283;48.504;13.734;2024-03-17T11:16:41;1.42;;;1.00;;
16346;SDS011;8283;48.504;13.734;2024-03-17T11:19:06;1.20;;;1.08;;
16346;SDS011;8283;48.504;13.734;2024-03-17T11:21:26;1.35;;;1.10;;
16346;SDS011;8283;48.504;13.734;2024-03-17T11:24:00;1.38;;;1.08;;
16346;SDS011;8283;48.504;13.734;2024-03-17T11:26:26;1.17;;;1.05;;
16346;SDS011;8283;48.504;13.734;2024-03-17T11:28:51;1.65;;;1.20;;
16346;SDS011;8283;48.504;13.734;2024-03-17T11:33:54;1.33;;;1.23;;
16346;SDS011;8283;48.504;13.734;2024-03-17T11:46:37;2.10;;;0.90;;
16346;SDS011;8283;48.504;13.734;2024-03-17T11:48:56;2.05;;;1.33;;
16346;SDS011;8283;48.504;13.734;2024-03-17T11:51:15;1.40;;;1.15;;
16346;SDS011;8283;48.504;13.734;2024-03-17T11:53:35;1.92;;;1.38;;
16346;SDS011;8283;48.504;13.734;2024-03-17T11:55:54;1.30;;;0.90;;
16346;SDS011;8283;48.504;13.734;2024-03-17T11:58:13;1.38;;;0.80;;
16346;SDS011;8283;48.504;13.734;2024-03-17T12:00:35;2.60;;;1.00;;
16346;SDS011;8283;48.504;13.734;2024-03-17T12:02:54;2.17;;;1.20;;
16346;SDS011;8283;48.504;13.734;2024-03-17T12:05:17;1.23;;;1.13;;
16346;SDS011;8283;48.504;13.734;2024-03-17T12:07:41;1.20;;;1.10;;
16346;SDS011;8283;48.504;13.734;2024-03-17T12:10:01;2.33;;;1.17;;
16346;SDS011;8283;48.504;13.734;2024-03-17T12:12:23;1.33;;;0.90;;
16346;SDS011;8283;48.504;13.734;2024-03-17T12:14:56;1.35;;;0.77;;
16346;SDS011;8283;48.504;13.734;2024-03-17T12:17:20;1.60;;;0.93;;
16346;SDS011;8283;48.504;13.734;2024-03-17T12:19:41;1.90;;;0.90;;
16346;SDS011;8283;48.504;13.734;2024-03-17T12:22:03;2.88;;;0.90;;
16346;SDS011;8283;48.504;13.734;2024-03-17T12:24:25;0.80;;;0.73;;
16346;SDS011;8283;48.504;13.734;2024-03-17T12:26:45;1.10;;;0.90;;
16346;SDS011;8283;48.504;13.734;2024-03-17T12:29:20;1.10;;;1.00;;
16346;SDS011;8283;48.504;13.734;2024-03-17T12:31:41;0.90;;;0.73;;
16346;SDS011;8283;48.504;13.734;2024-03-17T12:34:01;1.05;;;0.70;;
16346;SDS011;8283;48.504;13.734;2024-03-17T12:36:21;1.55;;;0.80;;
16346;SDS011;8283;48.504;13.734;2024-03-17T12:38:40;1.10;;;1.00;;
16346;SDS011;8283;48.504;13.734;2024-03-17T12:41:00;2.35;;;0.80;;
16346;SDS011;8283;48.504;13.734;2024-03-17T12:43:19;1.10;;;0.85;;
16346;SDS011;8283;48.504;13.734;2024-03-17T12:45:38;1.27;;;0.82;;
16346;SDS011;8283;48.504;13.734;2024-03-17T12:47:57;1.13;;;0.82;;
16346;SDS011;8283;48.504;13.734;2024-03-17T12:50:17;0.90;;;0.88;;
16346;SDS011;8283;48.504;13.734;2024-03-17T12:52:36;1.48;;;0.80;;
16346;SDS011;8283;48.504;13.734;2024-03-17T12:54:57;1.00;;;0.90;;
16346;SDS011;8283;48.504;13.734;2024-03-17T12:57:36;0.98;;;0.88;;
16346;SDS011;8283;48.504;13.734;2024-03-17T13:00:17;1.08;;;0.93;;
16346;SDS011;8283;48.504;13.734;2024-03-17T13:02:50;1.95;;;1.10;;
16346;SDS011;8283;48.504;13.734;2024-03-17T13:05:14;1.33;;;0.98;;
16346;SDS011;8283;48.504;13.734;2024-03-17T13:07:37;1.50;;;0.85;;
16346;SDS011;8283;48.504;13.734;2024-03-17T13:09:56;1.40;;;1.00;;
16346;SDS011;8283;48.504;13.734;2024-03-17T13:12:15;1.20;;;0.95;;
16346;SDS011;8283;48.504;13.734;2024-03-17T13:14:35;1.50;;;1.08;;
16346;SDS011;8283;48.504;13.734;2024-03-17T13:16:54;0.95;;;0.73;;
16346;SDS011;8283;48.504;13.734;2024-03-17T13:19:13;1.00;;;0.60;;
16346;SDS011;8283;48.504;13.734;2024-03-17T13:21:32;2.33;;;1.00;;
16346;SDS011;8283;48.504;13.734;2024-03-17T13:23:52;0.82;;;0.77;;
16346;SDS011;8283;48.504;13.734;2024-03-17T13:26:11;1.90;;;0.98;;
16346;SDS011;8283;48.504;13.734;2024-03-17T13:28:31;1.70;;;0.82;;
16346;SDS011;8283;48.504;13.734;2024-03-17T13:30:50;1.35;;;0.77;;
16346;SDS011;8283;48.504;13.734;2024-03-17T13:33:09;1.50;;;0.80;;
16346;SDS011;8283;48.504;13.734;2024-03-17T13:37:50;2.50;;;1.38;;
16346;SDS011;8283;48.504;13.734;2024-03-17T13:40:10;0.80;;;0.80;;
16346;SDS011;8283;48.504;13.734;2024-03-17T13:42:31;1.10;;;1.00;;
16346;SDS011;8283;48.504;13.734;2024-03-17T13:44:50;2.60;;;0.95;;
16346;SDS011;8283;48.504;13.734;2024-03-17T13:47:11;1.73;;;1.05;;
16346;SDS011;8283;48.504;13.734;2024-03-17T13:49:32;1.08;;;0.93;;
16346;SDS011;8283;48.504;13.734;2024-03-17T13:51:52;1.70;;;0.80;;
16346;SDS011;8283;48.504;13.734;2024-03-17T13:54:12;1.13;;;0.80;;
16346;SDS011;8283;48.504;13.734;2024-03-17T13:56:31;1.00;;;0.80;;
16346;SDS011;8283;48.504;13.734;2024-03-17T13:58:50;1.95;;;0.98;;
16346;SDS011;8283;48.504;13.734;2024-03-17T14:01:10;2.38;;;0.70;;
16346;SDS011;8283;48.504;13.734;2024-03-17T14:03:29;0.98;;;0.85;;
16346;SDS011;8283;48.504;13.734;2024-03-17T14:05:49;1.58;;;0.80;;
16346;SDS011;8283;48.504;13.734;2024-03-17T14:08:08;2.20;;;0.93;;
16346;SDS011;8283;48.504;13.734;2024-03-17T14:10:28;1.55;;;0.85;;
16346;SDS011;8283;48.504;13.734;2024-03-17T14:12:47;1.17;;;0.90;;
16346;SDS011;8283;48.504;13.734;2024-03-17T14:15:07;0.68;;;0.68;;
16346;SDS011;8283;48.504;13.734;2024-03-17T14:17:29;1.77;;;0.90;;
16346;SDS011;8283;48.504;13.734;2024-03-17T14:19:48;1.35;;;0.77;;
16346;SDS011;8283;48.504;13.734;2024-03-17T14:22:07;4.18;;;1.27;;
16346;SDS011;8283;48.504;13.734;2024-03-17T14:24:27;1.00;;;0.77;;
16346;SDS011;8283;48.504;13.734;2024-03-17T14:26:47;0.70;;;0.63;;
16346;SDS011;8283;48.504;13.734;2024-03-17T14:29:06;1.77;;;0.95;;
16346;SDS011;8283;48.504;13.734;2024-03-17T14:31:25;1.13;;;0.88;;
16346;SDS011;8283;48.504;13.734;2024-03-17T14:33:45;1.58;;;0.93;;
16346;SDS011;8283;48.504;13.734;2024-03-17T14:36:04;0.88;;;0.80;;
16346;SDS011;8283;48.504;13.734;2024-03-17T14:38:25;1.02;;;0.75;;
16346;SDS011;8283;48.504;13.734;2024-03-17T14:40:44;1.83;;;0.73;;
16346;SDS011;8283;48.504;13.734;2024-03-17T14:43:04;1.15;;;0.88;;
16346;SDS011;8283;48.504;13.734;2024-03-17T14:45:23;2.40;;;1.70;;